sensor_id;sensor_type;location;lat;lon;timestamp;temperature;humidity
23560;DHT22;11958;50.836;4.438;2023-03-02T00:01:47;1.00;58.70
23560;DHT22;11958;50.836;4.438;2023-03-02T00:04:22;1.50;58.40
23560;DHT22;11958;50.836;4.438;2023-03-02T00:07:15;1.20;58.20
23560;DHT22;11958;50.836;4.438;2023-03-02T00:12:49;1.10;58.80
23560;DHT22;11958;50.836;4.438;2023-03-02T00:15:16;1.00;59.30
23560;DHT22;11958;50.836;4.438;2023-03-02T00:17:42;0.70;59.70
23560;DHT22;11958;50.836;4.438;2023-03-02T00:20:08;0.80;60.00
23560;DHT22;11958;50.836;4.438;2023-03-02T00:22:37;1.00;60.40
23560;DHT22;11958;50.836;4.438;2023-03-02T00:25:11;1.00;59.70
23560;DHT22;11958;50.836;4.438;2023-03-02T00:27:37;1.10;59.50
23560;DHT22;11958;50.836;4.438;2023-03-02T00:30:11;1.00;59.80
23560;DHT22;11958;50.836;4.438;2023-03-02T00:32:40;1.10;59.30
23560;DHT22;11958;50.836;4.438;2023-03-02T00:35:07;1.20;59.60
23560;DHT22;11958;50.836;4.438;2023-03-02T00:37:36;1.00;59.20
23560;DHT22;11958;50.836;4.438;2023-03-02T00:40:04;1.10;59.40
23560;DHT22;11958;50.836;4.438;2023-03-02T00:42:32;1.20;59.20
23560;DHT22;11958;50.836;4.438;2023-03-02T00:45:07;0.90;59.50
23560;DHT22;11958;50.836;4.438;2023-03-02T00:47:36;1.10;60.60
23560;DHT22;11958;50.836;4.438;2023-03-02T00:50:06;0.90;60.30
23560;DHT22;11958;50.836;4.438;2023-03-02T00:52:32;1.00;60.60
23560;DHT22;11958;50.836;4.438;2023-03-02T00:55:01;1.20;59.50
23560;DHT22;11958;50.836;4.438;2023-03-02T00:57:54;1.00;60.10
23560;DHT22;11958;50.836;4.438;2023-03-02T01:03:14;0.80;61.60
23560;DHT22;11958;50.836;4.438;2023-03-02T01:05:39;0.60;60.90
23560;DHT22;11958;50.836;4.438;2023-03-02T01:08:05;0.80;61.70
23560;DHT22;11958;50.836;4.438;2023-03-02T01:10:32;0.80;60.90
23560;DHT22;11958;50.836;4.438;2023-03-02T01:12:58;0.80;60.90
23560;DHT22;11958;50.836;4.438;2023-03-02T01:15:23;0.90;61.00
23560;DHT22;11958;50.836;4.438;2023-03-02T01:17:49;0.70;60.50
23560;DHT22;11958;50.836;4.438;2023-03-02T01:20:16;0.70;61.00
23560;DHT22;11958;50.836;4.438;2023-03-02T01:22:55;0.60;60.90
23560;DHT22;11958;50.836;4.438;2023-03-02T01:25:36;0.70;60.60
23560;DHT22;11958;50.836;4.438;2023-03-02T01:28:09;0.80;60.50
23560;DHT22;11958;50.836;4.438;2023-03-02T01:30:51;0.80;61.00
23560;DHT22;11958;50.836;4.438;2023-03-02T01:33:44;0.60;61.70
23560;DHT22;11958;50.836;4.438;2023-03-02T01:39:42;0.60;62.60
23560;DHT22;11958;50.836;4.438;2023-03-02T01:42:21;1.00;61.40
23560;DHT22;11958;50.836;4.438;2023-03-02T01:44:51;0.70;61.90
23560;DHT22;11958;50.836;4.438;2023-03-02T01:47:49;0.70;61.50
23560;DHT22;11958;50.836;4.438;2023-03-02T01:50:44;0.60;61.70
23560;DHT22;11958;50.836;4.438;2023-03-02T01:53:28;0.70;60.80
23560;DHT22;11958;50.836;4.438;2023-03-02T01:56:23;0.60;60.90
23560;DHT22;11958;50.836;4.438;2023-03-02T01:58:53;0.70;60.60
23560;DHT22;11958;50.836;4.438;2023-03-02T02:01:23;0.70;60.90
23560;DHT22;11958;50.836;4.438;2023-03-02T02:03:49;0.70;60.80
23560;DHT22;11958;50.836;4.438;2023-03-02T02:06:20;0.40;60.60
23560;DHT22;11958;50.836;4.438;2023-03-02T02:08:48;0.70;59.80
23560;DHT22;11958;50.836;4.438;2023-03-02T02:11:14;0.80;59.80
23560;DHT22;11958;50.836;4.438;2023-03-02T02:24:09;0.70;59.80
23560;DHT22;11958;50.836;4.438;2023-03-02T02:26:45;0.60;60.70
23560;DHT22;11958;50.836;4.438;2023-03-02T02:29:18;0.70;60.30
23560;DHT22;11958;50.836;4.438;2023-03-02T02:32:08;0.50;60.40
23560;DHT22;11958;50.836;4.438;2023-03-02T02:34:52;0.80;60.60
23560;DHT22;11958;50.836;4.438;2023-03-02T02:37:25;0.70;60.70
23560;DHT22;11958;50.836;4.438;2023-03-02T02:39:52;0.50;60.60
23560;DHT22;11958;50.836;4.438;2023-03-02T02:42:23;0.50;61.00
23560;DHT22;11958;50.836;4.438;2023-03-02T02:44:56;0.40;61.30
23560;DHT22;11958;50.836;4.438;2023-03-02T02:47:23;0.30;62.00
23560;DHT22;11958;50.836;4.438;2023-03-02T02:49:51;0.50;62.00
23560;DHT22;11958;50.836;4.438;2023-03-02T02:52:23;0.50;62.00
23560;DHT22;11958;50.836;4.438;2023-03-02T02:58:35;0.10;62.10
23560;DHT22;11958;50.836;4.438;2023-03-02T03:01:01;0.40;62.00
23560;DHT22;11958;50.836;4.438;2023-03-02T03:03:33;0.40;62.00
23560;DHT22;11958;50.836;4.438;2023-03-02T03:06:10;0.30;62.10
23560;DHT22;11958;50.836;4.438;2023-03-02T03:08:48;0.30;62.00
23560;DHT22;11958;50.836;4.438;2023-03-02T03:11:18;0.70;62.10
23560;DHT22;11958;50.836;4.438;2023-03-02T03:14:11;0.60;61.40
23560;DHT22;11958;50.836;4.438;2023-03-02T03:16:38;0.80;61.40
23560;DHT22;11958;50.836;4.438;2023-03-02T03:19:20;0.70;61.20
23560;DHT22;11958;50.836;4.438;2023-03-02T03:21:49;0.80;60.80
23560;DHT22;11958;50.836;4.438;2023-03-02T03:24:15;0.70;61.40
23560;DHT22;11958;50.836;4.438;2023-03-02T03:30:49;0.30;63.00
23560;DHT22;11958;50.836;4.438;2023-03-02T03:47:59;0.20;63.20
23560;DHT22;11958;50.836;4.438;2023-03-02T03:50:57;0.40;61.90
23560;DHT22;11958;50.836;4.438;2023-03-02T03:53:26;0.40;61.90
23560;DHT22;11958;50.836;4.438;2023-03-02T03:56:04;0.40;61.50
23560;DHT22;11958;50.836;4.438;2023-03-02T03:58:30;0.40;62.10
23560;DHT22;11958;50.836;4.438;2023-03-02T04:01:09;0.40;62.70
23560;DHT22;11958;50.836;4.438;2023-03-02T04:03:38;0.20;62.80
23560;DHT22;11958;50.836;4.438;2023-03-02T04:06:04;0.50;62.30
23560;DHT22;11958;50.836;4.438;2023-03-02T04:08:39;0.50;62.40
23560;DHT22;11958;50.836;4.438;2023-03-02T04:11:05;0.30;62.40
23560;DHT22;11958;50.836;4.438;2023-03-02T04:13:40;0.20;62.60
23560;DHT22;11958;50.836;4.438;2023-03-02T04:16:08;0.10;62.90
23560;DHT22;11958;50.836;4.438;2023-03-02T04:18:34;0.30;62.90
23560;DHT22;11958;50.836;4.438;2023-03-02T04:21:05;0.00;63.00
23560;DHT22;11958;50.836;4.438;2023-03-02T04:23:47;0.20;63.20
23560;DHT22;11958;50.836;4.438;2023-03-02T04:26:32;0.40;62.50
23560;DHT22;11958;50.836;4.438;2023-03-02T04:29:16;0.40;62.70
23560;DHT22;11958;50.836;4.438;2023-03-02T04:31:42;0.40;62.60
23560;DHT22;11958;50.836;4.438;2023-03-02T04:34:08;0.70;62.10
23560;DHT22;11958;50.836;4.438;2023-03-02T04:36:43;0.50;62.30
23560;DHT22;11958;50.836;4.438;2023-03-02T04:39:29;0.30;62.50
23560;DHT22;11958;50.836;4.438;2023-03-02T04:42:15;0.10;63.20
23560;DHT22;11958;50.836;4.438;2023-03-02T04:44:43;0.20;63.50
23560;DHT22;11958;50.836;4.438;2023-03-02T04:47:15;0.20;63.80
23560;DHT22;11958;50.836;4.438;2023-03-02T04:49:51;0.10;63.50
23560;DHT22;11958;50.836;4.438;2023-03-02T04:52:38;0.20;64.00
23560;DHT22;11958;50.836;4.438;2023-03-02T04:55:26;0.00;64.10
23560;DHT22;11958;50.836;4.438;2023-03-02T04:58:04;0.00;64.40
23560;DHT22;11958;50.836;4.438;2023-03-02T05:00:43;-0.10;65.00
23560;DHT22;11958;50.836;4.438;2023-03-02T05:03:26;0.00;65.10
23560;DHT22;11958;50.836;4.438;2023-03-02T05:05:54;-0.10;64.90
23560;DHT22;11958;50.836;4.438;2023-03-02T05:08:24;0.00;64.90
23560;DHT22;11958;50.836;4.438;2023-03-02T05:10:55;0.10;64.50
23560;DHT22;11958;50.836;4.438;2023-03-02T05:16:28;0.00;63.90
23560;DHT22;11958;50.836;4.438;2023-03-02T05:18:58;0.20;64.50
23560;DHT22;11958;50.836;4.438;2023-03-02T05:22:07;0.20;64.20
23560;DHT22;11958;50.836;4.438;2023-03-02T05:28:10;0.00;64.20
23560;DHT22;11958;50.836;4.438;2023-03-02T05:30:35;0.10;64.00
23560;DHT22;11958;50.836;4.438;2023-03-02T05:33:21;0.00;64.20
23560;DHT22;11958;50.836;4.438;2023-03-02T05:36:17;0.10;64.20
23560;DHT22;11958;50.836;4.438;2023-03-02T05:38:52;0.30;63.90
23560;DHT22;11958;50.836;4.438;2023-03-02T05:41:18;0.20;63.90
23560;DHT22;11958;50.836;4.438;2023-03-02T05:43:44;0.20;63.50
23560;DHT22;11958;50.836;4.438;2023-03-02T05:46:10;0.40;63.80
23560;DHT22;11958;50.836;4.438;2023-03-02T05:48:48;0.10;64.10
23560;DHT22;11958;50.836;4.438;2023-03-02T05:51:17;-0.10;64.00
23560;DHT22;11958;50.836;4.438;2023-03-02T05:54:06;0.40;63.40
23560;DHT22;11958;50.836;4.438;2023-03-02T05:56:51;0.50;62.70
23560;DHT22;11958;50.836;4.438;2023-03-02T05:59:29;0.20;63.70
23560;DHT22;11958;50.836;4.438;2023-03-02T06:03:02;0.00;63.60
23560;DHT22;11958;50.836;4.438;2023-03-02T06:05:39;0.10;63.90
23560;DHT22;11958;50.836;4.438;2023-03-02T06:08:19;0.20;64.30
23560;DHT22;11958;50.836;4.438;2023-03-02T06:10:57;0.00;64.80
23560;DHT22;11958;50.836;4.438;2023-03-02T06:13:31;-0.20;65.50
23560;DHT22;11958;50.836;4.438;2023-03-02T06:16:23;-0.20;65.60
23560;DHT22;11958;50.836;4.438;2023-03-02T06:18:59;-0.30;66.30
23560;DHT22;11958;50.836;4.438;2023-03-02T06:21:24;-0.20;65.90
23560;DHT22;11958;50.836;4.438;2023-03-02T06:23:56;-0.20;66.20
23560;DHT22;11958;50.836;4.438;2023-03-02T06:26:21;-0.20;65.90
23560;DHT22;11958;50.836;4.438;2023-03-02T06:29:04;0.00;65.50
23560;DHT22;11958;50.836;4.438;2023-03-02T06:31:50;0.00;65.10
23560;DHT22;11958;50.836;4.438;2023-03-02T06:34:15;0.00;65.20
23560;DHT22;11958;50.836;4.438;2023-03-02T06:36:50;-0.20;65.30
23560;DHT22;11958;50.836;4.438;2023-03-02T06:42:59;0.10;64.90
23560;DHT22;11958;50.836;4.438;2023-03-02T06:45:43;-0.10;65.30
23560;DHT22;11958;50.836;4.438;2023-03-02T06:48:21;0.00;65.60
23560;DHT22;11958;50.836;4.438;2023-03-02T06:50:53;0.00;65.30
23560;DHT22;11958;50.836;4.438;2023-03-02T06:53:41;0.00;65.40
23560;DHT22;11958;50.836;4.438;2023-03-02T06:56:13;0.00;65.20
23560;DHT22;11958;50.836;4.438;2023-03-02T06:58:38;-0.10;65.40
23560;DHT22;11958;50.836;4.438;2023-03-02T07:04:33;0.00;65.50
23560;DHT22;11958;50.836;4.438;2023-03-02T07:06:59;0.00;65.40
23560;DHT22;11958;50.836;4.438;2023-03-02T07:12:06;0.30;65.10
23560;DHT22;11958;50.836;4.438;2023-03-02T07:14:47;0.20;64.60
23560;DHT22;11958;50.836;4.438;2023-03-02T07:17:19;0.40;64.40
23560;DHT22;11958;50.836;4.438;2023-03-02T07:19:49;0.50;63.90
23560;DHT22;11958;50.836;4.438;2023-03-02T07:25:19;0.90;62.50
23560;DHT22;11958;50.836;4.438;2023-03-02T07:27:45;0.50;63.30
23560;DHT22;11958;50.836;4.438;2023-03-02T07:30:11;0.60;63.70
23560;DHT22;11958;50.836;4.438;2023-03-02T07:32:49;0.70;63.40
23560;DHT22;11958;50.836;4.438;2023-03-02T07:35:15;0.50;63.40
23560;DHT22;11958;50.836;4.438;2023-03-02T07:37:42;0.40;63.60
23560;DHT22;11958;50.836;4.438;2023-03-02T07:40:09;0.70;63.90
23560;DHT22;11958;50.836;4.438;2023-03-02T07:42:36;0.80;62.60
23560;DHT22;11958;50.836;4.438;2023-03-02T07:45:03;0.90;62.20
23560;DHT22;11958;50.836;4.438;2023-03-02T07:47:29;0.70;62.50
23560;DHT22;11958;50.836;4.438;2023-03-02T07:49:55;0.80;63.20
23560;DHT22;11958;50.836;4.438;2023-03-02T07:52:21;1.20;62.20
23560;DHT22;11958;50.836;4.438;2023-03-02T07:54:47;0.90;62.80
23560;DHT22;11958;50.836;4.438;2023-03-02T07:57:12;1.00;63.30
23560;DHT22;11958;50.836;4.438;2023-03-02T07:59:41;1.10;62.60
23560;DHT22;11958;50.836;4.438;2023-03-02T08:02:12;1.00;61.60
23560;DHT22;11958;50.836;4.438;2023-03-02T08:04:39;1.40;61.40
23560;DHT22;11958;50.836;4.438;2023-03-02T08:07:04;1.50;60.60
23560;DHT22;11958;50.836;4.438;2023-03-02T08:09:30;1.20;60.60
23560;DHT22;11958;50.836;4.438;2023-03-02T08:18:09;1.30;61.10
23560;DHT22;11958;50.836;4.438;2023-03-02T08:21:17;1.30;60.90
23560;DHT22;11958;50.836;4.438;2023-03-02T08:24:04;1.30;61.20
23560;DHT22;11958;50.836;4.438;2023-03-02T08:26:36;1.40;61.20
23560;DHT22;11958;50.836;4.438;2023-03-02T08:29:02;1.40;61.10
23560;DHT22;11958;50.836;4.438;2023-03-02T08:32:03;1.20;61.40
23560;DHT22;11958;50.836;4.438;2023-03-02T08:34:31;1.50;60.90
23560;DHT22;11958;50.836;4.438;2023-03-02T08:36:57;1.60;60.20
23560;DHT22;11958;50.836;4.438;2023-03-02T08:39:23;1.70;60.50
23560;DHT22;11958;50.836;4.438;2023-03-02T08:41:52;1.80;60.20
23560;DHT22;11958;50.836;4.438;2023-03-02T08:44:18;1.60;60.70
23560;DHT22;11958;50.836;4.438;2023-03-02T08:46:47;1.70;60.40
23560;DHT22;11958;50.836;4.438;2023-03-02T08:49:24;2.10;59.80
23560;DHT22;11958;50.836;4.438;2023-03-02T08:51:50;2.20;59.00
23560;DHT22;11958;50.836;4.438;2023-03-02T08:54:18;2.40;58.70
23560;DHT22;11958;50.836;4.438;2023-03-02T08:56:45;2.50;57.70
23560;DHT22;11958;50.836;4.438;2023-03-02T08:59:12;2.70;57.10
23560;DHT22;11958;50.836;4.438;2023-03-02T09:01:38;2.70;57.00
23560;DHT22;11958;50.836;4.438;2023-03-02T09:04:05;2.70;57.60
23560;DHT22;11958;50.836;4.438;2023-03-02T09:06:34;2.40;57.50
23560;DHT22;11958;50.836;4.438;2023-03-02T09:09:02;2.40;57.70
23560;DHT22;11958;50.836;4.438;2023-03-02T09:11:28;2.50;57.50
23560;DHT22;11958;50.836;4.438;2023-03-02T09:13:54;2.80;57.00
23560;DHT22;11958;50.836;4.438;2023-03-02T09:16:21;3.10;56.10
23560;DHT22;11958;50.836;4.438;2023-03-02T09:18:48;3.20;56.00
23560;DHT22;11958;50.836;4.438;2023-03-02T09:21:17;3.70;53.90
23560;DHT22;11958;50.836;4.438;2023-03-02T09:23:52;3.40;54.30
23560;DHT22;11958;50.836;4.438;2023-03-02T09:26:22;3.50;54.30
23560;DHT22;11958;50.836;4.438;2023-03-02T09:28:48;3.30;54.50
23560;DHT22;11958;50.836;4.438;2023-03-02T09:31:14;3.60;54.60
23560;DHT22;11958;50.836;4.438;2023-03-02T09:33:40;3.90;53.50
23560;DHT22;11958;50.836;4.438;2023-03-02T09:36:27;3.80;53.30
23560;DHT22;11958;50.836;4.438;2023-03-02T09:38:56;4.10;52.90
23560;DHT22;11958;50.836;4.438;2023-03-02T09:50:37;3.70;54.60
23560;DHT22;11958;50.836;4.438;2023-03-02T09:56:55;3.70;54.70
23560;DHT22;11958;50.836;4.438;2023-03-02T09:59:38;3.90;54.20
23560;DHT22;11958;50.836;4.438;2023-03-02T10:05:22;4.20;53.50
23560;DHT22;11958;50.836;4.438;2023-03-02T10:08:13;4.20;52.70
23560;DHT22;11958;50.836;4.438;2023-03-02T10:13:43;4.30;52.70
23560;DHT22;11958;50.836;4.438;2023-03-02T10:16:31;4.10;53.10
23560;DHT22;11958;50.836;4.438;2023-03-02T10:19:18;4.30;52.70
23560;DHT22;11958;50.836;4.438;2023-03-02T10:22:12;4.40;51.70
23560;DHT22;11958;50.836;4.438;2023-03-02T10:24:55;4.60;51.70
23560;DHT22;11958;50.836;4.438;2023-03-02T10:27:33;4.80;52.00
23560;DHT22;11958;50.836;4.438;2023-03-02T10:32:42;4.90;51.50
23560;DHT22;11958;50.836;4.438;2023-03-02T10:35:21;5.10;51.10
23560;DHT22;11958;50.836;4.438;2023-03-02T10:37:59;5.10;50.60
23560;DHT22;11958;50.836;4.438;2023-03-02T10:41:09;5.00;50.40
23560;DHT22;11958;50.836;4.438;2023-03-02T10:43:50;5.10;50.20
23560;DHT22;11958;50.836;4.438;2023-03-02T10:46:17;5.20;50.60
23560;DHT22;11958;50.836;4.438;2023-03-02T10:48:55;5.10;50.50
23560;DHT22;11958;50.836;4.438;2023-03-02T10:54:01;5.40;50.20
23560;DHT22;11958;50.836;4.438;2023-03-02T11:03:03;5.50;49.40
23560;DHT22;11958;50.836;4.438;2023-03-02T11:05:33;5.40;49.70
23560;DHT22;11958;50.836;4.438;2023-03-02T11:08:15;5.50;49.70
23560;DHT22;11958;50.836;4.438;2023-03-02T11:10:59;6.20;48.50
23560;DHT22;11958;50.836;4.438;2023-03-02T11:13:36;5.80;48.90
23560;DHT22;11958;50.836;4.438;2023-03-02T11:19:45;6.20;48.90
23560;DHT22;11958;50.836;4.438;2023-03-02T11:24:57;6.60;48.30
23560;DHT22;11958;50.836;4.438;2023-03-02T11:27:27;6.50;47.70
23560;DHT22;11958;50.836;4.438;2023-03-02T11:30:35;6.70;47.70
23560;DHT22;11958;50.836;4.438;2023-03-02T11:33:14;6.60;47.90
23560;DHT22;11958;50.836;4.438;2023-03-02T11:35:58;7.10;47.30
23560;DHT22;11958;50.836;4.438;2023-03-02T11:38:55;6.70;46.90
23560;DHT22;11958;50.836;4.438;2023-03-02T11:41:33;6.60;48.00
23560;DHT22;11958;50.836;4.438;2023-03-02T11:44:18;6.70;47.60
23560;DHT22;11958;50.836;4.438;2023-03-02T11:46:59;6.80;47.50
23560;DHT22;11958;50.836;4.438;2023-03-02T11:49:53;6.90;47.20
23560;DHT22;11958;50.836;4.438;2023-03-02T11:52:22;7.10;46.80
23560;DHT22;11958;50.836;4.438;2023-03-02T11:57:48;7.20;46.50
23560;DHT22;11958;50.836;4.438;2023-03-02T12:00:27;7.10;46.50
23560;DHT22;11958;50.836;4.438;2023-03-02T12:03:05;7.20;46.50
23560;DHT22;11958;50.836;4.438;2023-03-02T12:05:36;7.00;47.20
23560;DHT22;11958;50.836;4.438;2023-03-02T12:11:02;7.40;46.50
23560;DHT22;11958;50.836;4.438;2023-03-02T12:13:38;7.50;45.90
23560;DHT22;11958;50.836;4.438;2023-03-02T12:16:38;7.90;45.10
23560;DHT22;11958;50.836;4.438;2023-03-02T12:22:01;8.30;44.50
23560;DHT22;11958;50.836;4.438;2023-03-02T12:24:30;9.90;41.60
23560;DHT22;11958;50.836;4.438;2023-03-02T12:32:35;14.90;31.50
23560;DHT22;11958;50.836;4.438;2023-03-02T12:35:13;15.30;30.10
23560;DHT22;11958;50.836;4.438;2023-03-02T12:38:03;14.60;31.10
23560;DHT22;11958;50.836;4.438;2023-03-02T12:43:30;14.80;31.00
23560;DHT22;11958;50.836;4.438;2023-03-02T12:46:11;15.40;29.40
23560;DHT22;11958;50.836;4.438;2023-03-02T13:04:05;14.90;30.50
23560;DHT22;11958;50.836;4.438;2023-03-02T13:11:59;15.10;29.90
23560;DHT22;11958;50.836;4.438;2023-03-02T13:14:31;15.30;29.20
23560;DHT22;11958;50.836;4.438;2023-03-02T13:17:03;15.10;29.60
23560;DHT22;11958;50.836;4.438;2023-03-02T13:19:39;15.00;30.00
23560;DHT22;11958;50.836;4.438;2023-03-02T13:22:11;15.50;28.00
23560;DHT22;11958;50.836;4.438;2023-03-02T13:27:51;14.80;29.60
23560;DHT22;11958;50.836;4.438;2023-03-02T13:30:29;15.20;29.30
23560;DHT22;11958;50.836;4.438;2023-03-02T13:33:02;16.00;27.30
23560;DHT22;11958;50.836;4.438;2023-03-02T13:35:34;16.10;27.00
23560;DHT22;11958;50.836;4.438;2023-03-02T13:38:12;16.10;26.90
23560;DHT22;11958;50.836;4.438;2023-03-02T13:40:49;16.80;26.20
23560;DHT22;11958;50.836;4.438;2023-03-02T13:43:36;17.30;26.40
23560;DHT22;11958;50.836;4.438;2023-03-02T13:46:26;18.00;25.10
23560;DHT22;11958;50.836;4.438;2023-03-02T13:52:25;16.50;25.80
23560;DHT22;11958;50.836;4.438;2023-03-02T13:54:54;17.00;25.40
23560;DHT22;11958;50.836;4.438;2023-03-02T13:57:31;17.90;24.70
23560;DHT22;11958;50.836;4.438;2023-03-02T14:00:00;18.90;23.00
23560;DHT22;11958;50.836;4.438;2023-03-02T14:02:27;18.90;22.20
23560;DHT22;11958;50.836;4.438;2023-03-02T14:04:56;18.40;22.70
23560;DHT22;11958;50.836;4.438;2023-03-02T14:07:28;18.80;22.60
23560;DHT22;11958;50.836;4.438;2023-03-02T14:10:10;18.00;24.40
23560;DHT22;11958;50.836;4.438;2023-03-02T14:13:15;16.90;25.30
23560;DHT22;11958;50.836;4.438;2023-03-02T14:15:47;16.30;26.20
23560;DHT22;11958;50.836;4.438;2023-03-02T14:18:36;16.90;25.70
23560;DHT22;11958;50.836;4.438;2023-03-02T14:21:03;18.30;22.80
23560;DHT22;11958;50.836;4.438;2023-03-02T14:23:29;18.00;24.20
23560;DHT22;11958;50.836;4.438;2023-03-02T14:25:55;17.90;24.10
23560;DHT22;11958;50.836;4.438;2023-03-02T14:28:32;16.50;25.30
23560;DHT22;11958;50.836;4.438;2023-03-02T14:31:00;15.60;26.70
23560;DHT22;11958;50.836;4.438;2023-03-02T14:33:26;15.80;26.60
23560;DHT22;11958;50.836;4.438;2023-03-02T14:35:53;15.70;27.40
23560;DHT22;11958;50.836;4.438;2023-03-02T14:38:26;15.10;28.80
23560;DHT22;11958;50.836;4.438;2023-03-02T14:47:21;15.40;29.60
23560;DHT22;11958;50.836;4.438;2023-03-02T14:49:48;15.50;27.70
23560;DHT22;11958;50.836;4.438;2023-03-02T14:52:22;15.20;29.10
23560;DHT22;11958;50.836;4.438;2023-03-02T14:55:11;15.20;29.50
23560;DHT22;11958;50.836;4.438;2023-03-02T14:57:38;14.80;29.80
23560;DHT22;11958;50.836;4.438;2023-03-02T15:00:05;14.30;30.20
23560;DHT22;11958;50.836;4.438;2023-03-02T15:02:32;13.90;31.30
23560;DHT22;11958;50.836;4.438;2023-03-02T15:05:07;14.00;31.00
23560;DHT22;11958;50.836;4.438;2023-03-02T15:07:32;13.50;31.60
23560;DHT22;11958;50.836;4.438;2023-03-02T15:09:58;13.00;32.50
23560;DHT22;11958;50.836;4.438;2023-03-02T15:12:24;12.40;34.80
23560;DHT22;11958;50.836;4.438;2023-03-02T15:14:50;12.20;35.70
23560;DHT22;11958;50.836;4.438;2023-03-02T15:17:22;12.50;35.00
23560;DHT22;11958;50.836;4.438;2023-03-02T15:19:47;12.60;35.00
23560;DHT22;11958;50.836;4.438;2023-03-02T15:24:50;13.30;33.10
23560;DHT22;11958;50.836;4.438;2023-03-02T15:30:04;14.30;30.90
23560;DHT22;11958;50.836;4.438;2023-03-02T15:32:46;13.90;31.30
23560;DHT22;11958;50.836;4.438;2023-03-02T15:35:21;13.60;32.00
23560;DHT22;11958;50.836;4.438;2023-03-02T15:37:47;13.20;32.30
23560;DHT22;11958;50.836;4.438;2023-03-02T15:43:50;12.30;35.90
23560;DHT22;11958;50.836;4.438;2023-03-02T15:51:49;11.20;37.70
23560;DHT22;11958;50.836;4.438;2023-03-02T15:56:41;10.90;38.00
23560;DHT22;11958;50.836;4.438;2023-03-02T15:59:46;10.60;38.70
23560;DHT22;11958;50.836;4.438;2023-03-02T16:02:11;10.40;39.30
23560;DHT22;11958;50.836;4.438;2023-03-02T16:13:52;10.00;40.50
23560;DHT22;11958;50.836;4.438;2023-03-02T16:19:58;10.10;40.50
23560;DHT22;11958;50.836;4.438;2023-03-02T16:22:44;10.00;40.20
23560;DHT22;11958;50.836;4.438;2023-03-02T16:25:12;9.90;40.20
23560;DHT22;11958;50.836;4.438;2023-03-02T16:27:38;9.90;40.40
23560;DHT22;11958;50.836;4.438;2023-03-02T16:30:15;9.90;40.60
23560;DHT22;11958;50.836;4.438;2023-03-02T16:36:19;9.70;41.70
23560;DHT22;11958;50.836;4.438;2023-03-02T16:38:47;9.70;41.60
23560;DHT22;11958;50.836;4.438;2023-03-02T16:42:04;9.60;41.90
23560;DHT22;11958;50.836;4.438;2023-03-02T16:45:07;9.50;41.90
23560;DHT22;11958;50.836;4.438;2023-03-02T17:00:36;9.10;43.10
23560;DHT22;11958;50.836;4.438;2023-03-02T17:06:37;9.40;43.30
23560;DHT22;11958;50.836;4.438;2023-03-02T17:11:55;9.10;43.50
23560;DHT22;11958;50.836;4.438;2023-03-02T17:14:23;9.10;43.80
23560;DHT22;11958;50.836;4.438;2023-03-02T17:24:03;9.00;44.40
23560;DHT22;11958;50.836;4.438;2023-03-02T17:26:59;8.90;44.30
23560;DHT22;11958;50.836;4.438;2023-03-02T17:29:32;8.70;44.40
23560;DHT22;11958;50.836;4.438;2023-03-02T17:32:10;8.60;44.80
23560;DHT22;11958;50.836;4.438;2023-03-02T17:34:36;8.50;45.00
23560;DHT22;11958;50.836;4.438;2023-03-02T17:37:07;8.30;45.30
23560;DHT22;11958;50.836;4.438;2023-03-02T17:39:55;8.40;45.40
23560;DHT22;11958;50.836;4.438;2023-03-02T17:42:23;8.30;45.60
23560;DHT22;11958;50.836;4.438;2023-03-02T17:45:32;8.20;45.00
23560;DHT22;11958;50.836;4.438;2023-03-02T17:48:02;8.30;45.00
23560;DHT22;11958;50.836;4.438;2023-03-02T17:50:31;8.10;45.10
23560;DHT22;11958;50.836;4.438;2023-03-02T17:52:59;8.10;45.60
23560;DHT22;11958;50.836;4.438;2023-03-02T17:55:26;8.10;45.20
23560;DHT22;11958;50.836;4.438;2023-03-02T17:57:52;8.00;45.40
23560;DHT22;11958;50.836;4.438;2023-03-02T18:00:19;8.00;45.00
23560;DHT22;11958;50.836;4.438;2023-03-02T18:02:45;8.10;44.50
23560;DHT22;11958;50.836;4.438;2023-03-02T18:05:21;8.30;44.20
23560;DHT22;11958;50.836;4.438;2023-03-02T18:07:50;8.20;44.00
23560;DHT22;11958;50.836;4.438;2023-03-02T18:10:28;7.90;44.40
23560;DHT22;11958;50.836;4.438;2023-03-02T18:13:12;7.70;44.60
23560;DHT22;11958;50.836;4.438;2023-03-02T18:15:58;7.80;44.40
23560;DHT22;11958;50.836;4.438;2023-03-02T18:18:26;7.70;44.80
23560;DHT22;11958;50.836;4.438;2023-03-02T18:23:47;7.70;45.10
23560;DHT22;11958;50.836;4.438;2023-03-02T18:26:16;7.70;45.40
23560;DHT22;11958;50.836;4.438;2023-03-02T18:28:42;7.50;45.20
23560;DHT22;11958;50.836;4.438;2023-03-02T18:31:25;7.60;45.10
23560;DHT22;11958;50.836;4.438;2023-03-02T18:34:21;7.50;45.40
23560;DHT22;11958;50.836;4.438;2023-03-02T18:40:09;7.30;45.90
23560;DHT22;11958;50.836;4.438;2023-03-02T18:42:46;7.10;46.30
23560;DHT22;11958;50.836;4.438;2023-03-02T18:45:35;7.10;46.60
23560;DHT22;11958;50.836;4.438;2023-03-02T18:48:01;7.10;47.20
23560;DHT22;11958;50.836;4.438;2023-03-02T18:50:28;6.90;47.70
23560;DHT22;11958;50.836;4.438;2023-03-02T18:52:54;6.90;47.90
23560;DHT22;11958;50.836;4.438;2023-03-02T18:55:21;6.90;47.90
23560;DHT22;11958;50.836;4.438;2023-03-02T18:57:50;6.80;47.80
23560;DHT22;11958;50.836;4.438;2023-03-02T19:00:24;6.80;47.70
23560;DHT22;11958;50.836;4.438;2023-03-02T19:17:22;6.80;48.70
23560;DHT22;11958;50.836;4.438;2023-03-02T19:19:54;6.80;49.50
23560;DHT22;11958;50.836;4.438;2023-03-02T19:22:20;7.10;49.10
23560;DHT22;11958;50.836;4.438;2023-03-02T19:24:45;7.10;49.00
23560;DHT22;11958;50.836;4.438;2023-03-02T19:27:12;7.10;49.30
23560;DHT22;11958;50.836;4.438;2023-03-02T19:29:38;6.80;50.20
23560;DHT22;11958;50.836;4.438;2023-03-02T19:32:22;6.90;50.50
23560;DHT22;11958;50.836;4.438;2023-03-02T19:34:48;6.60;51.30
23560;DHT22;11958;50.836;4.438;2023-03-02T19:40:17;6.80;51.10
23560;DHT22;11958;50.836;4.438;2023-03-02T19:42:43;6.90;50.90
23560;DHT22;11958;50.836;4.438;2023-03-02T19:45:24;7.00;51.30
23560;DHT22;11958;50.836;4.438;2023-03-02T19:47:50;6.90;52.00
23560;DHT22;11958;50.836;4.438;2023-03-02T19:50:17;6.80;52.40
23560;DHT22;11958;50.836;4.438;2023-03-02T19:52:43;6.60;53.00
23560;DHT22;11958;50.836;4.438;2023-03-02T19:55:24;6.60;53.80
23560;DHT22;11958;50.836;4.438;2023-03-02T19:58:23;6.60;53.80
23560;DHT22;11958;50.836;4.438;2023-03-02T20:01:03;6.50;54.40
23560;DHT22;11958;50.836;4.438;2023-03-02T20:03:30;6.50;54.90
23560;DHT22;11958;50.836;4.438;2023-03-02T20:05:56;6.40;55.40
23560;DHT22;11958;50.836;4.438;2023-03-02T20:08:26;6.40;56.10
23560;DHT22;11958;50.836;4.438;2023-03-02T20:10:52;6.20;55.70
23560;DHT22;11958;50.836;4.438;2023-03-02T20:13:21;6.20;56.40
23560;DHT22;11958;50.836;4.438;2023-03-02T20:15:55;6.40;56.40
23560;DHT22;11958;50.836;4.438;2023-03-02T20:18:20;6.30;56.60
23560;DHT22;11958;50.836;4.438;2023-03-02T20:20:46;6.50;56.80
23560;DHT22;11958;50.836;4.438;2023-03-02T20:23:16;6.20;56.80
23560;DHT22;11958;50.836;4.438;2023-03-02T20:25:45;6.30;56.60